Ornskoldsvik, Sweden

2:19 AM CET on November 01, 2014 (GMT +0100)
Ornskoldsvik | Change Station
CLOSE
Current Station
Airport
Location: Ornskoldsvik,
Elevation: 328 ft
Nearby Weather Stations

Elev 328 ft 63.41 °N, 18.98 °E | Updated 29 minutes ago

Clear
Clear
21 °F
Feels Like 16 °F
N
4
Wind Variable Wind from NNW

Today
High -- | Low -- °F
--% Chance of Precip.
Yesterday
High -- | Low -- °F
Precip. -- in
7:22 AM 3:31 PM
First Quarter, 61% visible
Pressure 30.27 in
Visibility 6.2 miles
Clouds
Windchill 16 °F
Dew Point 21 °F
Humidity 100%
Rainfall 0.00 in
Snow Depth Not available.
UV Not available.
Pollen Not available.
Air Quality Not available.
Flu Activity Not available.
METAR ESNO 010050Z AUTO 33003KT 9999 NCD M06/M06 Q1025

More Conditions Fewer Conditions

Pressure 30.27 in
Visibility 6.2 miles
Clouds
Windchill 16 °F
Dew Point 21 °F
Humidity 100%
Rainfall 0.00 in
Snow Depth Not available.
UV Not available.
Pollen Not available.
Air Quality Not available.
Flu Activity Not available.
METAR ESNO 010050Z AUTO 33003KT 9999 NCD M06/M06 Q1025

More Conditions Fewer Conditions

10-Day Weather Forecast

Almanac

Astronomy

Nov. 01, 2014 Rise Set
Actual Time
Civil Twilight
Nautical Twilight
Astronomical Twilight
Moon
Length of Visible Light
Length of Day
Tomorrow will be .
, % of the Moon is Illuminated

Today's Extremes

Country Highs Country Lows

Community

WunderPhotos

Upload Photos

1,766,798 photos uploaded!

WunderBlogs® & News

Nearby

Air Quality

  Air Quality AQ Index Pollutant
Not available.

Snow Depth

Station Depth Elevation

Earthquake Activity

City Distance Mag. Time & Date
Minimum magnitude displayed is 2.5.

Coastal Water Temperatures

Place Temperature

Nearby Weather Stations